createdAt,value
2023-05-08T00:01:54.146Z,52.60
2023-05-08T00:06:57.239Z,37.37
2023-05-08T00:12:00.268Z,40.87
2023-05-08T00:17:03.806Z,38.73
2023-05-08T00:22:07.061Z,32.97
2023-05-08T00:27:10.219Z,59.43
2023-05-08T00:32:13.442Z,59.30
2023-05-08T00:37:16.796Z,56.43
2023-05-08T00:42:19.973Z,35.80
2023-05-08T00:47:23.884Z,37.00
2023-05-08T00:52:29.976Z,42.17
2023-05-08T00:57:37.150Z,40.87
2023-05-08T01:02:41.494Z,46.60
2023-05-08T01:07:45.498Z,33.17
2023-05-08T01:13:00.400Z,31.17
2023-05-08T01:18:12.842Z,29.47
2023-05-08T01:23:44.433Z,27.07
2023-05-08T01:29:12.235Z,25.27
2023-05-08T01:34:25.430Z,23.10
2023-05-08T01:39:58.132Z,24.13
2023-05-08T01:45:05.546Z,26.33
2023-05-08T01:50:20.044Z,19.33
2023-05-08T01:55:31.865Z,24.33
2023-05-08T02:00:35.092Z,27.83
2023-05-08T02:05:39.169Z,30.67
2023-05-08T02:10:43.739Z,23.93
2023-05-08T02:15:49.472Z,29.77
2023-05-08T02:20:54.343Z,24.73
2023-05-08T02:25:58.566Z,24.27
2023-05-08T02:31:03.103Z,27.20
2023-05-08T02:36:07.741Z,23.90
2023-05-08T02:41:12.702Z,26.63
2023-05-08T02:46:46.700Z,19.50
2023-05-08T02:51:56.109Z,27.97
2023-05-08T02:57:06.837Z,23.77
2023-05-08T03:02:15.462Z,24.40
2023-05-08T03:07:22.206Z,21.07
2023-05-08T03:12:29.413Z,21.10
2023-05-08T03:17:35.620Z,23.50
2023-05-08T03:22:40.434Z,26.33
2023-05-08T03:27:45.371Z,27.20
2023-05-08T03:32:50.059Z,30.77
2023-05-08T03:37:54.542Z,33.03
2023-05-08T03:42:59.187Z,50.83
2023-05-08T03:48:04.308Z,77.00
2023-05-08T03:53:07.590Z,74.57
2023-05-08T03:58:29.736Z,68.73
2023-05-08T04:03:48.042Z,54.10
2023-05-08T04:09:03.238Z,45.07
2023-05-08T04:14:08.714Z,26.33
2023-05-08T04:19:17.800Z,23.93
2023-05-08T04:24:22.249Z,24.67
2023-05-08T04:29:25.975Z,20.77
2023-05-08T04:34:29.758Z,18.53
2023-05-08T04:39:32.843Z,15.67
2023-05-08T04:44:35.877Z,19.60
2023-05-08T04:49:38.847Z,24.13
2023-05-08T04:54:41.888Z,22.20
2023-05-08T04:59:45.016Z,20.30
2023-05-08T05:04:47.969Z,16.20
2023-05-08T05:09:51.046Z,16.90
2023-05-08T05:14:54.020Z,17.80
2023-05-08T05:19:57.684Z,18.50
2023-05-08T05:25:00.806Z,17.67
2023-05-08T05:30:04.175Z,19.20
2023-05-08T05:35:08.158Z,17.67
2023-05-08T05:40:13.580Z,20.97
2023-05-08T05:45:16.600Z,22.17
2023-05-08T05:50:20.191Z,24.67
2023-05-08T05:55:23.490Z,22.80
2023-05-08T06:00:26.938Z,22.90
2023-05-08T06:05:30.229Z,22.73
2023-05-08T06:10:33.470Z,25.17
2023-05-08T06:15:36.602Z,21.53
2023-05-08T06:20:39.676Z,18.27
2023-05-08T06:25:42.712Z,21.40
2023-05-08T06:30:45.799Z,19.30
2023-05-08T06:35:49.201Z,12.13
2023-05-08T06:40:52.488Z,9.83
2023-05-08T06:45:55.672Z,8.87
2023-05-08T06:50:59.171Z,8.67
2023-05-08T06:56:02.093Z,7.10
2023-05-08T07:01:05.312Z,7.83
2023-05-08T07:06:12.331Z,4.53
2023-05-08T07:11:15.593Z,4.60
2023-05-08T07:16:19.004Z,4.17
2023-05-08T07:21:22.152Z,3.50
2023-05-08T07:26:25.157Z,4.67
2023-05-08T07:31:28.218Z,5.47
2023-05-08T07:36:31.391Z,5.27
2023-05-08T07:41:35.311Z,4.33
2023-05-08T07:46:39.564Z,6.20
2023-05-08T07:51:42.528Z,4.40
2023-05-08T07:56:45.597Z,4.03
2023-05-08T08:01:48.740Z,6.13
2023-05-08T08:06:51.998Z,5.67
2023-05-08T08:11:55.137Z,5.57
2023-05-08T08:16:58.186Z,5.00
2023-05-08T08:22:01.442Z,5.17
2023-05-08T08:27:10.769Z,8.23
2023-05-08T08:32:16.620Z,6.10
2023-05-08T08:37:19.807Z,6.13
2023-05-08T08:42:23.874Z,4.90
2023-05-08T08:47:32.273Z,7.87
2023-05-08T08:53:06.580Z,5.23
2023-05-08T08:58:44.064Z,6.80
2023-05-08T09:03:50.081Z,6.27
2023-05-08T09:08:57.240Z,5.73
2023-05-08T09:14:00.333Z,7.03
2023-05-08T09:19:04.582Z,6.60
2023-05-08T09:24:08.170Z,8.27
2023-05-08T09:29:19.257Z,5.57
2023-05-08T09:34:29.335Z,7.50
2023-05-08T09:39:33.635Z,5.50
2023-05-08T09:44:50.120Z,7.37
2023-05-08T09:50:06.772Z,5.27
2023-05-08T09:55:11.170Z,10.53
2023-05-08T10:00:15.058Z,9.80
2023-05-08T10:05:24.614Z,8.53
2023-05-08T10:10:29.550Z,6.27
2023-05-08T10:15:35.493Z,4.43
2023-05-08T10:20:45.552Z,5.82
2023-05-08T10:25:52.724Z,4.13
2023-05-08T10:31:01.850Z,4.53
2023-05-08T10:36:07.235Z,4.22
2023-05-08T10:41:12.025Z,4.50
2023-05-08T10:46:49.766Z,6.23
2023-05-08T10:52:10.864Z,4.97
2023-05-08T10:57:13.971Z,4.13
2023-05-08T11:02:37.435Z,10.98
2023-05-08T11:07:58.018Z,6.22
2023-05-08T11:13:02.113Z,4.72
2023-05-08T11:18:09.311Z,4.53
2023-05-08T11:23:29.227Z,5.65
2023-05-08T11:28:40.441Z,5.05
2023-05-08T11:33:43.321Z,4.05
2023-05-08T11:39:09.783Z,5.07
2023-05-08T11:44:24.026Z,4.05
2023-05-08T11:49:29.802Z,3.55
2023-05-08T11:54:34.124Z,8.60
2023-05-08T11:59:37.911Z,5.75
2023-05-08T12:04:46.010Z,3.22
2023-05-08T12:09:49.154Z,4.90
2023-05-08T12:14:52.509Z,12.00
2023-05-08T12:19:56.875Z,4.85
2023-05-08T12:24:59.948Z,6.68
2023-05-08T12:30:10.577Z,8.25
2023-05-08T12:35:14.514Z,4.78
2023-05-08T12:40:29.100Z,3.90
2023-05-08T12:45:36.103Z,3.63
2023-05-08T12:50:41.304Z,6.28
2023-05-08T12:55:58.661Z,4.05
2023-05-08T13:01:13.819Z,5.97
2023-05-08T13:06:21.926Z,9.45
2023-05-08T13:11:34.706Z,4.20
2023-05-08T13:16:48.166Z,3.83
2023-05-08T13:21:53.122Z,4.25
2023-05-08T13:26:56.227Z,5.22
2023-05-08T13:32:00.603Z,3.47
2023-05-08T13:37:08.231Z,5.60
2023-05-08T13:42:14.360Z,3.25
2023-05-08T13:47:17.589Z,3.55
2023-05-08T13:52:20.645Z,6.03
2023-05-08T13:57:24.662Z,4.95
2023-05-08T14:02:28.446Z,6.13
2023-05-08T14:07:31.958Z,3.35
2023-05-08T14:12:36.571Z,7.40
2023-05-08T14:17:39.905Z,5.00
2023-05-08T14:22:42.828Z,4.53
2023-05-08T14:27:45.784Z,4.50
2023-05-08T14:32:49.173Z,6.38
2023-05-08T14:37:52.635Z,6.47
2023-05-08T14:42:55.944Z,5.03
2023-05-08T14:47:59.046Z,4.20
2023-05-08T14:53:02.440Z,4.57
2023-05-08T14:58:05.842Z,4.68
2023-05-08T15:03:09.117Z,3.05
2023-05-08T15:08:12.342Z,4.72
2023-05-08T15:13:15.485Z,4.60
2023-05-08T15:18:18.701Z,4.55
2023-05-08T15:23:21.936Z,4.53
2023-05-08T15:28:24.992Z,3.83
2023-05-08T15:33:27.989Z,4.78
2023-05-08T15:38:31.057Z,3.42
2023-05-08T15:43:35.230Z,3.97
2023-05-08T15:48:38.312Z,4.35
2023-05-08T15:53:41.500Z,9.30
2023-05-08T15:58:44.592Z,4.47
2023-05-08T16:03:48.124Z,9.25
2023-05-08T16:08:52.262Z,5.88
2023-05-08T16:13:55.585Z,5.47
2023-05-08T16:18:58.564Z,5.70
2023-05-08T16:24:01.963Z,5.43
2023-05-08T16:29:04.967Z,5.00
2023-05-08T16:34:07.943Z,4.00
2023-05-08T16:39:12.251Z,4.10
2023-05-08T16:44:15.477Z,8.40
2023-05-08T16:49:18.695Z,7.55
2023-05-08T16:54:21.728Z,9.68
2023-05-08T16:59:25.002Z,11.35
2023-05-08T17:04:29.703Z,4.72
2023-05-08T17:09:34.911Z,4.10
2023-05-08T17:14:40.997Z,7.82
2023-05-08T17:19:44.308Z,7.65
2023-05-08T17:24:47.858Z,4.72
2023-05-08T17:29:51.043Z,8.48
2023-05-08T17:34:54.091Z,5.82
2023-05-08T17:39:57.204Z,7.03
2023-05-08T17:45:00.264Z,9.93
2023-05-08T17:50:04.382Z,15.68
2023-05-08T17:55:08.012Z,8.82
2023-05-08T18:00:11.841Z,9.02
2023-05-08T18:05:16.210Z,20.10
2023-05-08T18:10:20.240Z,13.20
2023-05-08T18:15:23.716Z,9.43
2023-05-08T18:20:26.899Z,8.70
2023-05-08T18:25:30.566Z,10.67
2023-05-08T18:30:36.679Z,11.27
2023-05-08T18:35:40.359Z,13.50
2023-05-08T18:40:46.006Z,10.33
2023-05-08T18:45:49.088Z,12.63
2023-05-08T18:50:52.356Z,10.00
2023-05-08T18:55:55.872Z,15.80
2023-05-08T19:00:59.828Z,32.43
2023-05-08T19:06:02.910Z,18.83
2023-05-08T19:11:06.369Z,27.00
2023-05-08T19:16:09.701Z,21.80
2023-05-08T19:21:13.373Z,18.20
2023-05-08T19:26:16.875Z,19.20
2023-05-08T19:31:20.752Z,14.60
2023-05-08T19:36:25.725Z,13.00
2023-05-08T19:41:29.539Z,12.17
2023-05-08T19:46:32.719Z,11.57
2023-05-08T19:51:36.130Z,14.57
2023-05-08T19:56:40.614Z,15.80
2023-05-08T20:01:45.074Z,15.27
2023-05-08T20:06:48.661Z,11.20
2023-05-08T20:11:52.168Z,16.87
2023-05-08T20:16:55.319Z,13.60
2023-05-08T20:21:58.654Z,15.80
2023-05-08T20:27:01.678Z,23.80
2023-05-08T20:32:04.753Z,33.03
2023-05-08T20:37:07.788Z,43.07
2023-05-08T20:42:10.884Z,30.63
2023-05-08T20:47:14.011Z,23.57
2023-05-08T20:52:17.006Z,15.83
2023-05-08T20:57:20.333Z,13.40
2023-05-08T21:02:24.506Z,11.33
2023-05-08T21:07:27.859Z,12.70
2023-05-08T21:12:31.109Z,14.70
2023-05-08T21:17:34.176Z,14.70
2023-05-08T21:22:37.292Z,17.83
2023-05-08T21:27:41.152Z,15.77
2023-05-08T21:32:45.961Z,21.20
2023-05-08T21:37:54.427Z,23.83
2023-05-08T21:42:57.672Z,27.47
2023-05-08T21:48:01.374Z,24.03
2023-05-08T21:53:04.610Z,25.17
2023-05-08T21:58:07.594Z,23.77
2023-05-08T22:03:10.762Z,24.80
2023-05-08T22:08:13.954Z,25.53
2023-05-08T22:13:17.013Z,28.43
2023-05-08T22:18:20.106Z,29.83
2023-05-08T22:23:23.180Z,28.67
2023-05-08T22:28:26.773Z,28.27
2023-05-08T22:33:34.157Z,24.70
2023-05-08T22:38:37.482Z,21.17
2023-05-08T22:43:40.652Z,21.50
2023-05-08T22:48:43.665Z,22.47
2023-05-08T22:53:47.586Z,26.00
2023-05-08T22:58:50.912Z,38.83
2023-05-08T23:03:54.696Z,47.70
2023-05-08T23:08:57.706Z,63.30
2023-05-08T23:14:00.830Z,55.57
2023-05-08T23:19:04.952Z,66.63
2023-05-08T23:24:08.226Z,48.77
2023-05-08T23:29:11.171Z,52.60
2023-05-08T23:34:14.173Z,52.20
2023-05-08T23:39:17.224Z,40.30
2023-05-08T23:44:20.202Z,38.63
2023-05-08T23:49:23.369Z,45.13
2023-05-08T23:54:26.346Z,41.70
2023-05-08T23:59:29.335Z,35.30
